METAR Data
IDs: Format: Raw Decoded Include TAF

Data at: 0229 UTC 19 Oct 2021

PASI 190153Z 10014G29KT 10SM FEW050 OVC090 11/M03 A2960 RMK AO2 PK WND 10029/0150 SLP024 T01061028 $
PASI 190053Z 10014G23KT 10SM FEW050 OVC110 10/M02 A2962 RMK AO2 PK WND 10033/2359 SLP030 T01001022 $
PASI 182353Z 11018G28KT 10SM FEW030 FEW050 OVC110 11/M02 A2963 RMK AO2 PK WND 11030/2309 SLP033 T01061022 10106 20089 56011 $
PASI 182253Z 12014G24KT 10SM FEW030 OVC100 11/M02 A2964 RMK AO2 PK WND 11031/2207 SLP037 T01061017 $
PASI 182153Z 10017G28KT 10SM FEW030 BKN120 10/M01 A2963 RMK AO2 PK WND 08032/2141 PRESFR SLP034 T01001011 $
PASI 182053Z 12018G26KT 10SM FEW030 BKN110 10/M01 A2966 RMK AO2 PK WND 09029/1959 SLP044 T01001011 52003 $
PASI 181953Z 10020G26KT 10SM FEW030 OVC100 09/M01 A2965 RMK AO2 PK WND 11028/1924 SLP040 T00941011 $
PASI 181853Z 11017G22KT 10SM FEW030 OVC100 09/M02 A2966 RMK AO2 PK WND 10026/1757 SLP044 T00941017 $
PASI 181753Z 11015G24KT 10SM FEW030 BKN080 09/M02 A2965 RMK AO2 PK WND 12029/1700 SLP040 T00891022 10089 20078 51003 $
PASI 181653Z 11017G25KT 10SM FEW030 BKN095 08/M02 A2964 RMK AO2 SLP038 T00831022 $
PASI 181553Z 11018G25KT 10SM FEW030 BKN100 08/M02 A2965 RMK AO2 PK WND 10026/1507 SLP041 T00831017 $
PASI 181453Z 11017G24KT 10SM OVC110 08/M02 A2964 RMK AO2 PK WND 12026/1430 SLP037 T00831017 55013 $
PASI 181353Z 11016G26KT 10SM BKN120 08/M02 A2964 RMK AO2 PK WND 11027/1341 SLP037 T00831022 $
PASI 181253Z 11018G23KT 10SM SCT120 08/M02 A2967 RMK AO2 SLP046 T00831017 $
PASI 181153Z 09011KT 10SM BKN120 08/M02 A2968 RMK AO2 SLP050 T00781022 10083 20072 56014 $
PASI 181053Z 11015KT 10SM OVC150 08/M02 A2969 RMK AO2 SLP055 T00781022 $
PASI 180953Z 12013KT 10SM OVC150 08/M02 A2970 RMK AO2 SLP058 T00781022 $
PASI 180853Z 10012KT 10SM BKN150 08/M02 A2972 RMK AO2 SLP064 T00781022 400890006 58001 $
PASI 180753Z 11012KT 10SM BKN150 08/M03 A2973 RMK AO2 SLP068 T00831028 $
PASI 180653Z 11013KT 10SM BKN150 08/M02 A2972 RMK AO2 SLP063 T00781017 $
PASI 180553Z 10014G22KT 10SM OVC150 07/M02 A2972 RMK AO2 SLP065 T00721017 10083 20067 56009 $
PASI 180453Z 11014G21KT 10SM OVC150 08/M02 A2973 RMK AO2 SLP068 T00781022 $
PASI 180353Z COR 12011KT 10SM OVC150 08/M03 A2974 RMK AO2 SLP071 T00781028 $
PASI 180253Z 12011KT 10SM FEW030 BKN150 OVC250 08/M02 A2975 RMK AO2 SLP074 T00781022 58011 $
PASI 180153Z 09004KT 10SM FEW030 BKN150 OVC250 07/02 A2976 RMK AO2 SLP078 T00670017 $
PASI 180053Z 15003KT 10SM FEW030 BKN250 08/02 A2978 RMK AO2 SLP084 T00780017 $
PASI 172353Z 21006KT 10SM FEW030 BKN250 08/02 A2978 RMK AO2 SLP085 T00830017 10089 20039 58009 $
PASI 172253Z 21008KT 10SM FEW030 BKN250 08/02 A2980 RMK AO2 SLP090 T00830017 $
PASI 172153Z 19005KT 10SM FEW025 BKN250 09/02 A2980 RMK AO2 SLP092 T00890017 $
PASI 172053Z 00000KT 10SM SCT025 SCT250 08/M01 A2981 RMK AO2 SLP095 T00831006 58008 $
PASI 171953Z 11004KT 10SM FEW030 SCT250 07/M01 A2982 RMK AO2 SLP099 T00721011 $
PASI 171853Z 00000KT 10SM FEW035 SCT200 06/00 A2983 RMK AO2 SLP102 T00560000 $
PASI 171753Z 11005KT 10SM FEW010 FEW060 SCT200 04/00 A2984 RMK AO2 SLP103 I6000 T00390000 10039 20006 50002 $
PASI 171653Z 09003KT 9SM FEW150 02/00 A2985 RMK AO2 SLP106 T00170000 $
PASI 171553Z 00000KT 10SM CLR 01/M01 A2984 RMK AO2 SLP104 I1000 T00111006 $
PASI 171453Z 09003KT 10SM CLR 01/M01 A2983 RMK AO2 SLP101 T00111011 58011 $